createdAt,value
2023-03-12T00:01:13.192Z,4.07
2023-03-12T00:03:40.595Z,4.55
2023-03-12T00:06:10.831Z,3.78
2023-03-12T00:08:41.758Z,3.60
2023-03-12T00:11:10.955Z,3.90
2023-03-12T00:13:38.778Z,4.10
2023-03-12T00:16:11.693Z,3.33
2023-03-12T00:18:39.166Z,3.88
2023-03-12T00:21:07.492Z,4.32
2023-03-12T00:23:37.463Z,3.35
2023-03-12T00:26:06.788Z,3.97
2023-03-12T00:28:35.297Z,5.35
2023-03-12T00:31:23.638Z,3.55
2023-03-12T00:33:50.732Z,3.58
2023-03-12T00:36:19.189Z,3.45
2023-03-12T00:38:46.165Z,3.63
2023-03-12T00:41:15.908Z,3.33
2023-03-12T00:43:42.977Z,3.22
2023-03-12T00:46:10.154Z,3.80
2023-03-12T00:48:37.283Z,4.00
2023-03-12T00:51:04.735Z,3.45
2023-03-12T00:53:31.853Z,3.45
2023-03-12T00:55:58.990Z,3.35
2023-03-12T00:58:26.075Z,3.72
2023-03-12T01:00:53.471Z,3.40
2023-03-12T01:03:23.261Z,3.47
2023-03-12T01:05:54.893Z,3.42
2023-03-12T01:08:22.928Z,3.63
2023-03-12T01:10:50.226Z,3.50
2023-03-12T01:13:19.988Z,3.70
2023-03-12T01:15:47.066Z,3.30
2023-03-12T01:18:14.444Z,3.10
2023-03-12T01:20:41.776Z,2.67
2023-03-12T01:23:09.428Z,3.80
2023-03-12T01:25:37.109Z,3.72
2023-03-12T01:28:05.170Z,3.50
2023-03-12T01:30:32.318Z,3.20
2023-03-12T01:32:59.357Z,3.60
2023-03-12T01:35:26.898Z,3.35
2023-03-12T01:37:55.875Z,3.80
2023-03-12T01:40:29.138Z,3.80
2023-03-12T01:42:58.028Z,3.70
2023-03-12T01:46:03.390Z,3.08
2023-03-12T01:48:34.813Z,3.58
2023-03-12T01:51:02.608Z,3.33
2023-03-12T01:53:30.381Z,3.72
2023-03-12T01:55:58.673Z,2.72
2023-03-12T01:58:27.263Z,3.35
2023-03-12T02:00:55.287Z,3.03
2023-03-12T02:03:23.114Z,2.80
2023-03-12T02:06:12.296Z,2.70
2023-03-12T02:08:43.069Z,2.80
2023-03-12T02:11:10.525Z,3.10
2023-03-12T02:13:37.955Z,3.00
2023-03-12T02:16:07.616Z,2.90
2023-03-12T02:18:35.246Z,2.80
2023-03-12T02:21:21.558Z,2.92
2023-03-12T02:24:21.379Z,2.90
2023-03-12T02:26:51.047Z,3.90
2023-03-12T02:29:18.494Z,2.70
2023-03-12T02:31:52.713Z,2.72
2023-03-12T02:34:19.782Z,3.10
2023-03-12T02:36:47.899Z,2.75
2023-03-12T02:39:15.036Z,2.80
2023-03-12T02:42:00.981Z,2.63
2023-03-12T02:44:31.502Z,3.20
2023-03-12T02:47:00.250Z,2.47
2023-03-12T02:49:34.400Z,2.75
2023-03-12T02:52:01.822Z,3.03
2023-03-12T02:54:29.216Z,2.83
2023-03-12T02:56:56.648Z,2.10
2023-03-12T02:59:26.833Z,1.77
2023-03-12T03:01:59.086Z,1.10
2023-03-12T03:06:53.981Z,1.00
2023-03-12T03:09:22.500Z,1.13
2023-03-12T03:11:50.378Z,1.70
2023-03-12T03:14:17.816Z,1.67
2023-03-12T03:16:45.070Z,1.30
2023-03-12T03:19:12.083Z,1.13
2023-03-12T03:21:39.203Z,1.50
2023-03-12T03:24:06.433Z,1.60
2023-03-12T03:26:33.586Z,1.63
2023-03-12T03:29:00.560Z,1.98
2023-03-12T03:31:27.911Z,2.15
2023-03-12T03:33:55.079Z,1.73
2023-03-12T03:36:23.349Z,1.88
2023-03-12T03:38:50.793Z,1.90
2023-03-12T03:41:19.522Z,1.48
2023-03-12T03:43:47.070Z,1.88
2023-03-12T03:46:14.932Z,1.70
2023-03-12T03:48:42.547Z,1.48
2023-03-12T03:51:10.788Z,1.23
2023-03-12T03:53:37.896Z,1.23
2023-03-12T03:56:13.615Z,0.90
2023-03-12T03:58:40.629Z,1.10
2023-03-12T04:01:07.891Z,1.33
2023-03-12T04:03:35.267Z,1.10
2023-03-12T04:06:06.346Z,0.88
2023-03-12T04:08:35.599Z,0.70
2023-03-12T04:11:29.134Z,0.85
2023-03-12T04:13:57.093Z,1.05
2023-03-12T04:16:24.805Z,0.80
2023-03-12T04:18:52.018Z,1.20
2023-03-12T04:21:19.493Z,1.02
2023-03-12T04:23:46.607Z,1.27
2023-03-12T04:26:13.736Z,1.27
2023-03-12T04:28:40.810Z,0.98
2023-03-12T04:31:09.082Z,1.30
2023-03-12T04:33:38.653Z,1.27
2023-03-12T04:36:06.485Z,1.08
2023-03-12T04:38:33.857Z,1.30
2023-03-12T04:41:02.211Z,1.30
2023-03-12T04:43:30.287Z,1.25
2023-03-12T04:45:57.725Z,1.40
2023-03-12T04:48:25.619Z,1.35
2023-03-12T04:50:52.704Z,1.40
2023-03-12T04:53:19.852Z,1.50
2023-03-12T04:55:46.934Z,0.98
2023-03-12T04:58:14.018Z,1.65
2023-03-12T05:00:42.354Z,1.30
2023-03-12T05:03:12.129Z,1.15
2023-03-12T05:05:41.408Z,1.25
2023-03-12T05:08:08.437Z,1.27
2023-03-12T05:10:35.632Z,1.75
2023-03-12T05:13:02.568Z,2.80
2023-03-12T05:15:31.716Z,2.17
2023-03-12T05:17:58.706Z,2.22
2023-03-12T05:20:25.732Z,1.70
2023-03-12T05:22:54.920Z,1.50
2023-03-12T05:25:22.117Z,1.95
2023-03-12T05:27:49.079Z,1.60
2023-03-12T05:30:16.208Z,1.70
2023-03-12T05:32:43.313Z,1.52
2023-03-12T05:35:10.595Z,2.17
2023-03-12T05:37:37.497Z,3.00
2023-03-12T05:40:05.494Z,2.80
2023-03-12T05:42:32.656Z,2.85
2023-03-12T05:45:00.697Z,3.55
2023-03-12T05:47:29.730Z,1.95
2023-03-12T05:49:56.756Z,1.92
2023-03-12T05:52:23.711Z,2.47
2023-03-12T05:54:52.863Z,1.98
2023-03-12T05:57:20.072Z,1.80
2023-03-12T05:59:49.138Z,2.17
2023-03-12T06:02:16.125Z,2.50
2023-03-12T06:04:43.065Z,2.15
2023-03-12T06:07:10.084Z,1.70
2023-03-12T06:09:37.053Z,1.67
2023-03-12T06:12:04.202Z,2.08
2023-03-12T06:14:31.234Z,1.73
2023-03-12T06:16:58.188Z,1.58
2023-03-12T06:19:25.172Z,1.92
2023-03-12T06:21:52.146Z,1.77
2023-03-12T06:24:19.125Z,1.55
2023-03-12T06:26:46.290Z,1.80
2023-03-12T06:29:13.245Z,1.80
2023-03-12T06:31:42.378Z,1.80
2023-03-12T06:34:10.458Z,1.33
2023-03-12T06:36:37.649Z,2.10
2023-03-12T06:39:09.174Z,1.45
2023-03-12T06:41:36.689Z,1.55
2023-03-12T06:44:06.271Z,1.73
2023-03-12T06:46:33.886Z,1.60
2023-03-12T06:49:00.868Z,1.60
2023-03-12T06:51:27.868Z,1.60
2023-03-12T06:53:54.922Z,1.80
2023-03-12T06:56:21.950Z,1.58
2023-03-12T06:58:49.044Z,1.65
2023-03-12T07:01:16.016Z,1.70
2023-03-12T07:03:43.238Z,2.05
2023-03-12T07:06:17.779Z,2.00
2023-03-12T07:08:45.943Z,2.05
2023-03-12T07:11:13.668Z,2.08
2023-03-12T07:13:43.392Z,1.92
2023-03-12T07:16:10.704Z,2.10
2023-03-12T07:18:40.293Z,1.55
2023-03-12T07:21:07.447Z,1.25
2023-03-12T07:23:38.998Z,1.60
2023-03-12T07:26:06.540Z,1.80
2023-03-12T07:28:33.584Z,1.40
2023-03-12T07:31:04.824Z,1.85
2023-03-12T07:33:32.877Z,1.80
2023-03-12T07:36:00.337Z,1.45
2023-03-12T07:38:27.629Z,1.48
2023-03-12T07:40:56.282Z,1.92
2023-03-12T07:43:24.152Z,1.67
2023-03-12T07:45:54.446Z,1.83
2023-03-12T07:48:21.702Z,1.70
2023-03-12T07:50:49.067Z,1.95
2023-03-12T07:53:16.639Z,2.08
2023-03-12T07:55:46.249Z,1.77
2023-03-12T07:58:14.153Z,1.52
2023-03-12T08:00:41.619Z,1.55
2023-03-12T08:03:09.221Z,1.85
2023-03-12T08:05:36.744Z,1.60
2023-03-12T08:08:03.872Z,1.63
2023-03-12T08:10:31.379Z,1.70
2023-03-12T08:12:58.607Z,1.98
2023-03-12T08:15:25.661Z,1.70
2023-03-12T08:17:53.882Z,1.75
2023-03-12T08:20:20.872Z,1.88
2023-03-12T08:22:48.479Z,1.90
2023-03-12T08:25:16.159Z,2.05
2023-03-12T08:27:43.266Z,1.90
2023-03-12T08:30:11.171Z,2.03
2023-03-12T08:32:38.300Z,2.20
2023-03-12T08:35:05.851Z,1.75
2023-03-12T08:37:33.378Z,1.80
2023-03-12T08:40:00.611Z,1.77
2023-03-12T08:42:27.764Z,2.42
2023-03-12T08:44:54.762Z,2.60
2023-03-12T08:47:24.179Z,1.85
2023-03-12T08:49:51.304Z,1.88
2023-03-12T08:52:20.902Z,2.53
2023-03-12T08:54:47.849Z,2.42
2023-03-12T08:57:15.812Z,2.30
2023-03-12T08:59:43.235Z,1.95
2023-03-12T09:02:19.607Z,1.70
2023-03-12T09:04:50.734Z,2.08
2023-03-12T09:07:22.437Z,1.88
2023-03-12T09:09:49.442Z,2.10
2023-03-12T09:12:16.556Z,2.03
2023-03-12T09:15:02.493Z,2.33
2023-03-12T09:17:33.109Z,2.15
2023-03-12T09:20:00.485Z,2.10
2023-03-12T09:22:30.803Z,1.48
2023-03-12T09:25:01.375Z,1.60
2023-03-12T09:27:28.630Z,1.33
2023-03-12T09:30:02.949Z,2.45
2023-03-12T09:32:32.180Z,1.60
2023-03-12T09:34:59.427Z,2.13
2023-03-12T09:37:26.438Z,1.67
2023-03-12T09:39:53.994Z,2.25
2023-03-12T09:42:47.338Z,1.88
2023-03-12T09:45:26.410Z,1.80
2023-03-12T09:47:58.304Z,1.70
2023-03-12T09:50:40.783Z,2.05
2023-03-12T09:55:41.759Z,2.28
2023-03-12T09:58:29.799Z,1.63
2023-03-12T10:01:38.251Z,2.10
2023-03-12T10:04:11.367Z,1.83
2023-03-12T10:06:54.098Z,1.75
2023-03-12T10:09:24.085Z,2.00
2023-03-12T10:12:10.711Z,1.95
2023-03-12T10:14:52.332Z,1.98
2023-03-12T10:18:10.482Z,1.40
2023-03-12T10:20:52.347Z,1.55
2023-03-12T10:23:53.290Z,1.90
2023-03-12T10:26:31.966Z,3.03
2023-03-12T10:29:03.116Z,2.38
2023-03-12T10:31:36.606Z,1.85
2023-03-12T10:34:14.857Z,2.40
2023-03-12T10:36:42.378Z,1.50
2023-03-12T10:39:18.586Z,1.80
2023-03-12T10:41:47.264Z,1.40
2023-03-12T10:44:24.754Z,1.10
2023-03-12T10:47:06.002Z,1.63
2023-03-12T10:49:36.419Z,2.03
2023-03-12T10:52:30.578Z,1.70
2023-03-12T10:54:57.770Z,1.60
2023-03-12T10:57:40.160Z,1.33
2023-03-12T11:00:12.172Z,1.48
2023-03-12T11:02:42.551Z,2.03
2023-03-12T11:05:23.107Z,1.52
2023-03-12T11:07:50.507Z,1.70
2023-03-12T11:10:38.062Z,1.98
2023-03-12T11:13:21.268Z,2.33
2023-03-12T11:15:54.725Z,1.58
2023-03-12T11:18:26.684Z,1.83
2023-03-12T11:21:12.497Z,1.90
2023-03-12T11:23:43.996Z,1.80
2023-03-12T11:26:21.444Z,1.55
2023-03-12T11:29:26.906Z,1.90
2023-03-12T11:32:12.647Z,1.60
2023-03-12T11:34:40.439Z,1.33
2023-03-12T11:37:19.599Z,1.38
2023-03-12T11:39:55.740Z,2.13
2023-03-12T11:43:03.634Z,1.73
2023-03-12T11:45:49.652Z,2.28
2023-03-12T11:48:41.131Z,1.70
2023-03-12T11:51:20.231Z,2.00
2023-03-12T11:53:47.158Z,1.40
2023-03-12T11:56:17.217Z,1.40
2023-03-12T11:59:07.643Z,1.52
2023-03-12T12:01:46.873Z,1.60
2023-03-12T12:04:37.390Z,1.42
2023-03-12T12:07:35.298Z,1.67
2023-03-12T12:10:02.312Z,1.50
2023-03-12T12:12:48.466Z,1.98
2023-03-12T12:15:25.177Z,2.33
2023-03-12T12:18:21.251Z,1.75
2023-03-12T12:20:50.103Z,1.40
2023-03-12T12:23:36.130Z,1.42
2023-03-12T12:26:25.083Z,2.03
2023-03-12T12:29:03.771Z,1.98
2023-03-12T12:31:33.782Z,1.55
2023-03-12T12:34:32.846Z,1.85
2023-03-12T12:37:36.286Z,2.30
2023-03-12T12:40:37.742Z,1.60
2023-03-12T12:43:30.344Z,1.65
2023-03-12T12:48:27.787Z,1.75
2023-03-12T12:50:55.633Z,2.00
2023-03-12T12:53:54.345Z,1.80
2023-03-12T12:56:44.269Z,1.50
2023-03-12T12:59:25.323Z,1.60
2023-03-12T13:01:59.166Z,1.83
2023-03-12T13:04:36.616Z,1.92
2023-03-12T13:07:12.772Z,1.60
2023-03-12T13:09:52.756Z,2.20
2023-03-12T13:12:38.908Z,1.73
2023-03-12T13:15:32.112Z,1.52
2023-03-12T13:18:01.566Z,1.60
2023-03-12T13:20:53.074Z,1.48
2023-03-12T13:23:45.379Z,1.30
2023-03-12T13:26:31.035Z,1.40
2023-03-12T13:29:12.190Z,1.45
2023-03-12T13:31:42.503Z,1.83
2023-03-12T13:34:18.630Z,1.80
2023-03-12T13:36:48.104Z,1.95
2023-03-12T13:39:44.680Z,1.90
2023-03-12T13:42:23.833Z,1.80
2023-03-12T13:44:54.783Z,1.75
2023-03-12T13:47:38.405Z,1.40
2023-03-12T13:50:15.759Z,2.17
2023-03-12T13:52:50.625Z,1.63
2023-03-12T13:55:35.586Z,1.80
2023-03-12T13:58:24.393Z,1.77
2023-03-12T14:00:56.514Z,1.48
2023-03-12T14:06:06.141Z,2.10
2023-03-12T14:09:05.888Z,1.73
2023-03-12T14:11:54.241Z,1.63
2023-03-12T14:14:45.939Z,1.70
2023-03-12T14:17:20.685Z,2.30
2023-03-12T14:19:51.344Z,2.00
2023-03-12T14:22:23.032Z,1.83
2023-03-12T14:24:55.181Z,2.17
2023-03-12T14:27:29.875Z,1.63
2023-03-12T14:30:12.510Z,2.28
2023-03-12T14:32:43.607Z,4.30
2023-03-12T14:35:30.583Z,3.78
2023-03-12T14:38:16.915Z,2.72
2023-03-12T14:40:47.135Z,2.10
2023-03-12T14:43:30.309Z,1.85
2023-03-12T14:46:03.945Z,2.42
2023-03-12T14:48:34.103Z,2.13
2023-03-12T14:51:03.145Z,2.20
2023-03-12T14:53:39.901Z,2.17
2023-03-12T14:56:08.488Z,2.97
2023-03-12T14:58:42.088Z,3.10
2023-03-12T15:01:14.105Z,2.50
2023-03-12T15:03:50.418Z,2.55
2023-03-12T15:06:37.375Z,2.30
2023-03-12T15:09:06.982Z,2.35
2023-03-12T15:11:37.899Z,2.60
2023-03-12T15:14:14.489Z,2.75
2023-03-12T15:16:43.742Z,2.80
2023-03-12T15:19:15.411Z,2.83
2023-03-12T15:21:42.867Z,2.92
2023-03-12T15:24:13.514Z,3.08
2023-03-12T15:26:41.795Z,3.05
2023-03-12T15:29:27.452Z,3.30
2023-03-12T15:32:14.228Z,3.40
2023-03-12T15:34:48.202Z,3.20
2023-03-12T15:37:21.618Z,3.35
2023-03-12T15:39:51.341Z,3.50
2023-03-12T15:42:21.399Z,3.58
2023-03-12T15:45:00.088Z,3.60
2023-03-12T15:47:33.253Z,3.83
2023-03-12T15:50:31.944Z,4.45
2023-03-12T15:53:31.167Z,4.25
2023-03-12T15:56:03.205Z,4.20
2023-03-12T15:58:48.124Z,5.53
2023-03-12T16:01:28.364Z,5.70
2023-03-12T16:03:55.864Z,5.93
2023-03-12T16:06:25.764Z,6.22
2023-03-12T16:08:58.255Z,5.03
2023-03-12T16:11:28.319Z,5.45
2023-03-12T16:14:03.854Z,6.40
2023-03-12T16:16:31.166Z,6.20
2023-03-12T16:18:58.291Z,5.28
2023-03-12T16:21:27.857Z,5.30
2023-03-12T16:23:54.968Z,5.22
2023-03-12T16:26:24.380Z,6.07
2023-03-12T16:28:51.618Z,7.15
2023-03-12T16:31:19.641Z,8.02
2023-03-12T16:33:49.938Z,8.80
2023-03-12T16:36:19.307Z,11.15
2023-03-12T16:38:49.331Z,19.25
2023-03-12T16:41:20.068Z,25.98
2023-03-12T16:43:51.417Z,14.80
2023-03-12T16:46:20.459Z,16.07
2023-03-12T16:48:52.977Z,22.48
2023-03-12T16:51:20.328Z,17.08
2023-03-12T16:54:02.000Z,20.80
2023-03-12T16:56:38.019Z,28.23
2023-03-12T16:59:07.750Z,39.50
2023-03-12T17:01:36.357Z,27.92
2023-03-12T17:04:05.370Z,27.58
2023-03-12T17:06:34.781Z,28.60
2023-03-12T17:09:03.443Z,38.17
2023-03-12T17:11:33.203Z,32.08
2023-03-12T17:14:15.573Z,36.75
2023-03-12T17:19:09.433Z,44.65
2023-03-12T17:21:37.573Z,45.22
2023-03-12T17:24:04.974Z,41.40
2023-03-12T17:26:32.524Z,34.28
2023-03-12T17:28:59.595Z,28.48
2023-03-12T17:31:27.071Z,27.55
2023-03-12T17:33:54.189Z,27.55
2023-03-12T17:36:21.267Z,25.33
2023-03-12T17:38:50.733Z,26.00
2023-03-12T17:41:26.462Z,27.65
2023-03-12T17:43:59.940Z,29.10
2023-03-12T17:46:27.554Z,24.63
2023-03-12T17:48:55.119Z,27.20
2023-03-12T17:51:22.345Z,28.88
2023-03-12T17:53:49.723Z,30.63
2023-03-12T17:56:18.239Z,28.13
2023-03-12T17:58:46.801Z,25.23
2023-03-12T18:01:14.487Z,21.95
2023-03-12T18:03:44.040Z,17.67
2023-03-12T18:06:14.138Z,15.60
2023-03-12T18:08:41.197Z,16.10
2023-03-12T18:11:08.336Z,15.82
2023-03-12T18:13:35.249Z,14.55
2023-03-12T18:16:02.313Z,15.23
2023-03-12T18:18:29.427Z,17.05
2023-03-12T18:20:58.622Z,16.83
2023-03-12T18:23:25.958Z,15.98
2023-03-12T18:25:53.385Z,17.05
2023-03-12T18:28:20.987Z,14.23
2023-03-12T18:30:48.197Z,15.50
2023-03-12T18:33:15.216Z,15.18
2023-03-12T18:35:43.884Z,15.30
2023-03-12T18:38:15.536Z,15.07
2023-03-12T18:40:42.751Z,14.93
2023-03-12T18:43:09.752Z,17.23
2023-03-12T18:45:41.632Z,20.10
2023-03-12T18:48:08.589Z,23.55
2023-03-12T18:50:36.405Z,23.65
2023-03-12T18:53:04.283Z,25.08
2023-03-12T18:55:32.295Z,28.23
2023-03-12T18:58:01.448Z,26.85
2023-03-12T19:00:28.506Z,22.38
2023-03-12T19:02:58.158Z,21.65
2023-03-12T19:05:25.152Z,20.88
2023-03-12T19:07:54.820Z,21.83
2023-03-12T19:10:23.897Z,20.95
2023-03-12T19:12:53.333Z,21.92
2023-03-12T19:15:24.237Z,23.40
2023-03-12T19:17:51.926Z,23.73
2023-03-12T19:20:19.020Z,24.80
2023-03-12T19:22:48.121Z,29.10
2023-03-12T19:25:15.941Z,27.00
2023-03-12T19:27:42.877Z,26.63
2023-03-12T19:30:10.680Z,22.75
2023-03-12T19:32:43.669Z,24.67
2023-03-12T19:35:15.270Z,22.80
2023-03-12T19:37:42.803Z,23.30
2023-03-12T19:40:13.436Z,21.88
2023-03-12T19:42:40.637Z,23.20
2023-03-12T19:45:08.094Z,22.70
2023-03-12T19:47:35.267Z,19.40
2023-03-12T19:50:02.321Z,18.70
2023-03-12T19:52:29.403Z,18.33
2023-03-12T19:55:04.296Z,16.88
2023-03-12T19:57:32.033Z,17.63
2023-03-12T19:59:59.287Z,19.45
2023-03-12T20:02:26.639Z,17.08
2023-03-12T20:04:55.512Z,20.52
2023-03-12T20:07:22.853Z,21.00
2023-03-12T20:09:49.997Z,19.73
2023-03-12T20:12:17.222Z,19.80
2023-03-12T20:14:44.653Z,19.52
2023-03-12T20:17:12.337Z,15.80
2023-03-12T20:19:39.966Z,16.77
2023-03-12T20:22:07.446Z,14.63
2023-03-12T20:24:36.726Z,13.88
2023-03-12T20:27:04.034Z,14.57
2023-03-12T20:29:31.153Z,14.02
2023-03-12T20:31:58.249Z,14.70
2023-03-12T20:34:25.230Z,14.27
2023-03-12T20:36:52.331Z,13.82
2023-03-12T20:39:19.441Z,13.15
2023-03-12T20:41:46.685Z,14.93
2023-03-12T20:44:13.672Z,15.88
2023-03-12T20:46:42.693Z,18.02
2023-03-12T20:49:09.597Z,20.05
2023-03-12T20:51:36.577Z,18.80
2023-03-12T20:54:03.692Z,18.42
2023-03-12T20:56:30.801Z,18.35
2023-03-12T20:58:59.363Z,16.65
2023-03-12T21:01:26.753Z,18.95
2023-03-12T21:03:57.334Z,17.55
2023-03-12T21:06:24.857Z,19.25
2023-03-12T21:08:51.957Z,14.15
2023-03-12T21:11:18.868Z,16.85
2023-03-12T21:13:46.309Z,16.70
2023-03-12T21:16:13.438Z,19.23
2023-03-12T21:18:40.742Z,22.63
2023-03-12T21:21:08.949Z,14.73
2023-03-12T21:23:36.529Z,14.05
2023-03-12T21:26:08.943Z,13.75
2023-03-12T21:28:36.385Z,12.95
2023-03-12T21:31:12.598Z,11.27
2023-03-12T21:33:39.816Z,10.38
2023-03-12T21:36:11.789Z,11.27
2023-03-12T21:38:40.126Z,11.23
2023-03-12T21:41:09.376Z,11.15
2023-03-12T21:43:37.255Z,11.07
2023-03-12T21:46:13.018Z,10.90
2023-03-12T21:48:40.533Z,11.18
2023-03-12T21:51:10.449Z,11.85
2023-03-12T21:53:38.083Z,13.48
2023-03-12T21:56:07.328Z,12.05
2023-03-12T21:58:36.917Z,14.35
2023-03-12T22:01:04.017Z,14.27
2023-03-12T22:03:31.460Z,12.63
2023-03-12T22:05:58.635Z,13.35
2023-03-12T22:08:25.861Z,13.63
2023-03-12T22:10:55.432Z,13.30
2023-03-12T22:13:22.484Z,11.98
2023-03-12T22:15:59.789Z,11.32
2023-03-12T22:18:28.049Z,12.48
2023-03-12T22:20:57.345Z,12.63
2023-03-12T22:23:24.799Z,11.57
2023-03-12T22:25:52.053Z,12.07
2023-03-12T22:28:19.430Z,12.95
2023-03-12T22:30:48.991Z,13.20
2023-03-12T22:33:16.009Z,15.90
2023-03-12T22:35:49.412Z,16.35
2023-03-12T22:38:16.410Z,14.77
2023-03-12T22:40:43.786Z,12.77
2023-03-12T22:43:11.635Z,13.77
2023-03-12T22:45:38.594Z,14.50
2023-03-12T22:48:05.842Z,13.63
2023-03-12T22:50:34.031Z,12.65
2023-03-12T22:53:01.051Z,12.07
2023-03-12T22:55:28.198Z,11.40
2023-03-12T22:57:56.663Z,10.65
2023-03-12T23:00:23.976Z,9.80
2023-03-12T23:02:50.992Z,10.02
2023-03-12T23:05:18.056Z,10.57
2023-03-12T23:07:45.170Z,10.75
2023-03-12T23:10:13.292Z,11.35
2023-03-12T23:12:40.451Z,9.18
2023-03-12T23:15:07.946Z,8.45
2023-03-12T23:17:35.003Z,8.32
2023-03-12T23:20:02.096Z,8.63
2023-03-12T23:22:29.089Z,8.75
2023-03-12T23:24:56.191Z,8.13
2023-03-12T23:27:23.332Z,8.15
2023-03-12T23:29:50.478Z,8.80
2023-03-12T23:32:17.776Z,9.20
2023-03-12T23:34:45.081Z,9.25
2023-03-12T23:37:12.960Z,8.07
2023-03-12T23:39:53.444Z,12.68
2023-03-12T23:42:21.695Z,9.35
2023-03-12T23:44:48.649Z,9.07
2023-03-12T23:47:15.636Z,8.85
2023-03-12T23:49:42.616Z,9.23
2023-03-12T23:52:12.389Z,8.57
2023-03-12T23:54:39.438Z,9.02
2023-03-12T23:57:08.743Z,8.75
2023-03-12T23:59:35.839Z,8.93
